sensor_id;sensor_type;location;lat;lon;timestamp;P1;durP1;ratioP1;P2;durP2;ratioP2
61471;SDS011;47337;54.068;12.114;2022-09-27T00:00:58;3.05;;;1.23;;
61471;SDS011;47337;54.068;12.114;2022-09-27T00:03:24;2.05;;;1.17;;
61471;SDS011;47337;54.068;12.114;2022-09-27T00:05:59;2.60;;;1.05;;
61471;SDS011;47337;54.068;12.114;2022-09-27T00:08:26;2.00;;;1.20;;
61471;SDS011;47337;54.068;12.114;2022-09-27T00:10:58;3.08;;;1.40;;
61471;SDS011;47337;54.068;12.114;2022-09-27T00:13:24;2.40;;;1.27;;
61471;SDS011;47337;54.068;12.114;2022-09-27T00:15:54;2.95;;;1.05;;
61471;SDS011;47337;54.068;12.114;2022-09-27T00:18:21;1.50;;;1.40;;
61471;SDS011;47337;54.068;12.114;2022-09-27T00:20:46;2.05;;;1.40;;
61471;SDS011;47337;54.068;12.114;2022-09-27T00:23:11;1.63;;;1.20;;
61471;SDS011;47337;54.068;12.114;2022-09-27T00:25:37;1.70;;;1.40;;
61471;SDS011;47337;54.068;12.114;2022-09-27T00:28:03;1.35;;;1.08;;
61471;SDS011;47337;54.068;12.114;2022-09-27T00:30:28;1.63;;;1.20;;
61471;SDS011;47337;54.068;12.114;2022-09-27T00:32:54;1.60;;;1.40;;
61471;SDS011;47337;54.068;12.114;2022-09-27T00:35:19;2.17;;;1.42;;
61471;SDS011;47337;54.068;12.114;2022-09-27T00:37:46;3.38;;;1.42;;
61471;SDS011;47337;54.068;12.114;2022-09-27T00:40:12;1.95;;;1.40;;
61471;SDS011;47337;54.068;12.114;2022-09-27T00:42:39;2.47;;;1.20;;
61471;SDS011;47337;54.068;12.114;2022-09-27T00:45:12;4.18;;;1.40;;
61471;SDS011;47337;54.068;12.114;2022-09-27T00:48:03;3.25;;;1.00;;
61471;SDS011;47337;54.068;12.114;2022-09-27T00:50:33;1.33;;;1.13;;
61471;SDS011;47337;54.068;12.114;2022-09-27T00:53:11;4.60;;;1.48;;
61471;SDS011;47337;54.068;12.114;2022-09-27T00:55:45;1.30;;;1.10;;
61471;SDS011;47337;54.068;12.114;2022-09-27T00:58:19;4.72;;;1.38;;
61471;SDS011;47337;54.068;12.114;2022-09-27T01:00:53;4.15;;;1.20;;
61471;SDS011;47337;54.068;12.114;2022-09-27T01:03:33;1.40;;;1.30;;
61471;SDS011;47337;54.068;12.114;2022-09-27T01:06:09;1.75;;;1.00;;
61471;SDS011;47337;54.068;12.114;2022-09-27T01:08:35;1.35;;;1.00;;
61471;SDS011;47337;54.068;12.114;2022-09-27T01:11:14;1.52;;;1.20;;
61471;SDS011;47337;54.068;12.114;2022-09-27T01:16:30;4.45;;;1.35;;
61471;SDS011;47337;54.068;12.114;2022-09-27T01:19:09;1.48;;;1.00;;
61471;SDS011;47337;54.068;12.114;2022-09-27T01:24:25;3.33;;;1.65;;
61471;SDS011;47337;54.068;12.114;2022-09-27T01:32:51;2.22;;;1.60;;
61471;SDS011;47337;54.068;12.114;2022-09-27T01:37:55;3.58;;;1.58;;
61471;SDS011;47337;54.068;12.114;2022-09-27T01:41:23;3.05;;;1.50;;
61471;SDS011;47337;54.068;12.114;2022-09-27T01:43:28;3.83;;;1.70;;
61471;SDS011;47337;54.068;12.114;2022-09-27T01:46:14;1.77;;;1.58;;
61471;SDS011;47337;54.068;12.114;2022-09-27T01:48:48;2.15;;;1.70;;
61471;SDS011;47337;54.068;12.114;2022-09-27T01:51:15;6.32;;;1.60;;
61471;SDS011;47337;54.068;12.114;2022-09-27T01:53:45;4.45;;;1.88;;
61471;SDS011;47337;54.068;12.114;2022-09-27T01:56:14;2.20;;;1.52;;
61471;SDS011;47337;54.068;12.114;2022-09-27T01:58:56;2.58;;;1.50;;
61471;SDS011;47337;54.068;12.114;2022-09-27T02:01:23;3.28;;;1.80;;
61471;SDS011;47337;54.068;12.114;2022-09-27T02:03:53;4.07;;;1.35;;
61471;SDS011;47337;54.068;12.114;2022-09-27T02:06:23;1.52;;;1.27;;
61471;SDS011;47337;54.068;12.114;2022-09-27T02:08:55;2.83;;;1.50;;
61471;SDS011;47337;54.068;12.114;2022-09-27T02:11:26;2.17;;;1.33;;
61471;SDS011;47337;54.068;12.114;2022-09-27T02:16:57;2.05;;;1.50;;
61471;SDS011;47337;54.068;12.114;2022-09-27T02:22:54;2.97;;;1.70;;
61471;SDS011;47337;54.068;12.114;2022-09-27T02:27:57;3.67;;;1.58;;
61471;SDS011;47337;54.068;12.114;2022-09-27T02:30:24;4.80;;;2.65;;
61471;SDS011;47337;54.068;12.114;2022-09-27T02:32:50;2.00;;;1.63;;
61471;SDS011;47337;54.068;12.114;2022-09-27T02:35:17;2.38;;;1.52;;
61471;SDS011;47337;54.068;12.114;2022-09-27T02:37:46;2.15;;;1.60;;
61471;SDS011;47337;54.068;12.114;2022-09-27T02:40:14;1.73;;;1.50;;
61471;SDS011;47337;54.068;12.114;2022-09-27T02:42:41;2.20;;;1.50;;
61471;SDS011;47337;54.068;12.114;2022-09-27T02:45:08;1.92;;;1.58;;
61471;SDS011;47337;54.068;12.114;2022-09-27T02:53:27;3.63;;;1.70;;
61471;SDS011;47337;54.068;12.114;2022-09-27T02:58:33;2.22;;;1.88;;
61471;SDS011;47337;54.068;12.114;2022-09-27T03:06:53;5.50;;;2.35;;
61471;SDS011;47337;54.068;12.114;2022-09-27T03:09:27;3.08;;;1.95;;
61471;SDS011;47337;54.068;12.114;2022-09-27T03:11:54;4.90;;;2.40;;
61471;SDS011;47337;54.068;12.114;2022-09-27T03:14:19;2.33;;;1.73;;
61471;SDS011;47337;54.068;12.114;2022-09-27T03:16:45;3.17;;;2.05;;
61471;SDS011;47337;54.068;12.114;2022-09-27T03:19:13;3.05;;;2.10;;
61471;SDS011;47337;54.068;12.114;2022-09-27T03:21:38;4.95;;;2.08;;
61471;SDS011;47337;54.068;12.114;2022-09-27T03:24:04;5.30;;;2.15;;
61471;SDS011;47337;54.068;12.114;2022-09-27T03:26:32;3.58;;;2.38;;
61471;SDS011;47337;54.068;12.114;2022-09-27T03:29:00;3.22;;;2.40;;
61471;SDS011;47337;54.068;12.114;2022-09-27T03:31:26;4.10;;;2.78;;
61471;SDS011;47337;54.068;12.114;2022-09-27T03:33:51;3.78;;;2.67;;
61471;SDS011;47337;54.068;12.114;2022-09-27T03:36:16;3.70;;;2.47;;
61471;SDS011;47337;54.068;12.114;2022-09-27T03:38:44;2.90;;;2.53;;
61471;SDS011;47337;54.068;12.114;2022-09-27T03:41:09;3.75;;;2.33;;
61471;SDS011;47337;54.068;12.114;2022-09-27T03:43:37;2.45;;;2.20;;
61471;SDS011;47337;54.068;12.114;2022-09-27T03:46:05;2.80;;;2.47;;
61471;SDS011;47337;54.068;12.114;2022-09-27T03:48:33;3.50;;;2.42;;
61471;SDS011;47337;54.068;12.114;2022-09-27T03:51:01;3.10;;;2.33;;
61471;SDS011;47337;54.068;12.114;2022-09-27T03:53:26;5.35;;;3.22;;
61471;SDS011;47337;54.068;12.114;2022-09-27T03:55:51;4.43;;;2.50;;
61471;SDS011;47337;54.068;12.114;2022-09-27T03:58:17;4.57;;;3.10;;
61471;SDS011;47337;54.068;12.114;2022-09-27T04:00:44;3.40;;;2.83;;
61471;SDS011;47337;54.068;12.114;2022-09-27T04:03:10;3.72;;;2.92;;
61471;SDS011;47337;54.068;12.114;2022-09-27T04:05:36;6.22;;;2.80;;
61471;SDS011;47337;54.068;12.114;2022-09-27T04:08:04;4.70;;;3.47;;
61471;SDS011;47337;54.068;12.114;2022-09-27T04:10:32;3.50;;;2.90;;
61471;SDS011;47337;54.068;12.114;2022-09-27T04:13:00;4.35;;;2.70;;
61471;SDS011;47337;54.068;12.114;2022-09-27T04:15:25;3.90;;;3.08;;
61471;SDS011;47337;54.068;12.114;2022-09-27T04:17:51;4.03;;;2.78;;
61471;SDS011;47337;54.068;12.114;2022-09-27T04:20:16;3.25;;;2.83;;
61471;SDS011;47337;54.068;12.114;2022-09-27T04:22:42;4.28;;;3.03;;
61471;SDS011;47337;54.068;12.114;2022-09-27T04:25:09;3.92;;;3.10;;
61471;SDS011;47337;54.068;12.114;2022-09-27T04:27:39;4.47;;;3.03;;
61471;SDS011;47337;54.068;12.114;2022-09-27T04:30:09;3.22;;;2.85;;
61471;SDS011;47337;54.068;12.114;2022-09-27T04:32:39;4.10;;;3.17;;
61471;SDS011;47337;54.068;12.114;2022-09-27T04:35:08;3.95;;;2.88;;
61471;SDS011;47337;54.068;12.114;2022-09-27T04:37:53;4.15;;;3.15;;
61471;SDS011;47337;54.068;12.114;2022-09-27T04:40:18;3.45;;;3.10;;
61471;SDS011;47337;54.068;12.114;2022-09-27T04:42:47;4.88;;;3.30;;
61471;SDS011;47337;54.068;12.114;2022-09-27T04:45:15;5.32;;;2.90;;
61471;SDS011;47337;54.068;12.114;2022-09-27T04:47:44;5.68;;;3.20;;
61471;SDS011;47337;54.068;12.114;2022-09-27T04:50:11;4.28;;;2.85;;
61471;SDS011;47337;54.068;12.114;2022-09-27T04:52:40;5.18;;;3.67;;
61471;SDS011;47337;54.068;12.114;2022-09-27T04:55:06;5.63;;;3.20;;
61471;SDS011;47337;54.068;12.114;2022-09-27T04:57:32;5.60;;;3.30;;
61471;SDS011;47337;54.068;12.114;2022-09-27T04:59:58;4.43;;;3.03;;
61471;SDS011;47337;54.068;12.114;2022-09-27T05:02:26;5.85;;;3.10;;
61471;SDS011;47337;54.068;12.114;2022-09-27T05:04:53;6.47;;;3.97;;
61471;SDS011;47337;54.068;12.114;2022-09-27T05:07:23;3.92;;;2.85;;
61471;SDS011;47337;54.068;12.114;2022-09-27T05:09:55;5.28;;;3.65;;
61471;SDS011;47337;54.068;12.114;2022-09-27T05:12:21;5.07;;;3.50;;
61471;SDS011;47337;54.068;12.114;2022-09-27T05:14:46;5.30;;;3.78;;
61471;SDS011;47337;54.068;12.114;2022-09-27T05:17:12;4.00;;;3.33;;
61471;SDS011;47337;54.068;12.114;2022-09-27T05:19:38;5.32;;;3.33;;
61471;SDS011;47337;54.068;12.114;2022-09-27T05:22:06;4.53;;;3.00;;
61471;SDS011;47337;54.068;12.114;2022-09-27T05:24:31;3.78;;;3.20;;
61471;SDS011;47337;54.068;12.114;2022-09-27T05:27:00;4.78;;;3.17;;
61471;SDS011;47337;54.068;12.114;2022-09-27T05:29:26;3.60;;;3.05;;
61471;SDS011;47337;54.068;12.114;2022-09-27T05:31:52;3.72;;;3.00;;
61471;SDS011;47337;54.068;12.114;2022-09-27T05:34:17;4.60;;;3.30;;
61471;SDS011;47337;54.068;12.114;2022-09-27T05:36:48;3.45;;;3.15;;
61471;SDS011;47337;54.068;12.114;2022-09-27T05:39:13;3.40;;;3.10;;
61471;SDS011;47337;54.068;12.114;2022-09-27T05:41:43;4.00;;;3.33;;
61471;SDS011;47337;54.068;12.114;2022-09-27T05:44:09;4.18;;;3.10;;
61471;SDS011;47337;54.068;12.114;2022-09-27T05:46:35;4.30;;;3.15;;
61471;SDS011;47337;54.068;12.114;2022-09-27T05:49:02;4.35;;;3.20;;
61471;SDS011;47337;54.068;12.114;2022-09-27T05:51:30;5.00;;;3.17;;
61471;SDS011;47337;54.068;12.114;2022-09-27T05:53:56;3.92;;;2.92;;
61471;SDS011;47337;54.068;12.114;2022-09-27T05:56:22;4.15;;;2.80;;
61471;SDS011;47337;54.068;12.114;2022-09-27T05:58:49;5.18;;;3.03;;
61471;SDS011;47337;54.068;12.114;2022-09-27T06:01:17;4.45;;;3.08;;
61471;SDS011;47337;54.068;12.114;2022-09-27T06:03:44;4.63;;;3.00;;
61471;SDS011;47337;54.068;12.114;2022-09-27T06:06:12;3.28;;;2.55;;
61471;SDS011;47337;54.068;12.114;2022-09-27T06:08:43;3.72;;;2.80;;
61471;SDS011;47337;54.068;12.114;2022-09-27T06:11:09;4.18;;;2.70;;
61471;SDS011;47337;54.068;12.114;2022-09-27T06:13:36;3.78;;;3.08;;
61471;SDS011;47337;54.068;12.114;2022-09-27T06:16:03;3.08;;;2.72;;
61471;SDS011;47337;54.068;12.114;2022-09-27T06:18:30;3.67;;;2.67;;
61471;SDS011;47337;54.068;12.114;2022-09-27T06:20:58;2.90;;;2.50;;
61471;SDS011;47337;54.068;12.114;2022-09-27T06:23:25;5.60;;;2.90;;
61471;SDS011;47337;54.068;12.114;2022-09-27T06:25:51;8.13;;;2.60;;
61471;SDS011;47337;54.068;12.114;2022-09-27T06:28:17;4.88;;;2.65;;
61471;SDS011;47337;54.068;12.114;2022-09-27T06:30:47;5.60;;;2.97;;
61471;SDS011;47337;54.068;12.114;2022-09-27T06:33:17;4.07;;;2.78;;
61471;SDS011;47337;54.068;12.114;2022-09-27T06:35:46;4.47;;;2.47;;
61471;SDS011;47337;54.068;12.114;2022-09-27T06:38:17;3.10;;;2.35;;
61471;SDS011;47337;54.068;12.114;2022-09-27T06:40:43;2.85;;;2.63;;
61471;SDS011;47337;54.068;12.114;2022-09-27T06:43:10;5.30;;;2.50;;
61471;SDS011;47337;54.068;12.114;2022-09-27T06:45:37;3.30;;;2.33;;
61471;SDS011;47337;54.068;12.114;2022-09-27T06:48:03;4.13;;;2.65;;
61471;SDS011;47337;54.068;12.114;2022-09-27T06:50:32;3.00;;;2.50;;
61471;SDS011;47337;54.068;12.114;2022-09-27T06:52:59;5.00;;;2.60;;
61471;SDS011;47337;54.068;12.114;2022-09-27T06:55:25;3.60;;;2.58;;
61471;SDS011;47337;54.068;12.114;2022-09-27T06:57:54;3.60;;;2.83;;
61471;SDS011;47337;54.068;12.114;2022-09-27T07:00:38;3.95;;;2.70;;
61471;SDS011;47337;54.068;12.114;2022-09-27T07:03:04;2.67;;;2.47;;
61471;SDS011;47337;54.068;12.114;2022-09-27T07:05:30;3.65;;;2.58;;
61471;SDS011;47337;54.068;12.114;2022-09-27T07:07:55;2.85;;;2.40;;
61471;SDS011;47337;54.068;12.114;2022-09-27T07:10:28;3.20;;;2.38;;
61471;SDS011;47337;54.068;12.114;2022-09-27T07:12:56;2.60;;;2.03;;
61471;SDS011;47337;54.068;12.114;2022-09-27T07:15:34;2.80;;;2.35;;
61471;SDS011;47337;54.068;12.114;2022-09-27T07:18:04;4.45;;;2.47;;
61471;SDS011;47337;54.068;12.114;2022-09-27T07:20:31;3.22;;;2.42;;
61471;SDS011;47337;54.068;12.114;2022-09-27T07:22:58;3.70;;;2.20;;
61471;SDS011;47337;54.068;12.114;2022-09-27T07:25:24;4.03;;;2.00;;
61471;SDS011;47337;54.068;12.114;2022-09-27T07:27:52;3.50;;;2.50;;
61471;SDS011;47337;54.068;12.114;2022-09-27T07:30:18;2.58;;;2.35;;
61471;SDS011;47337;54.068;12.114;2022-09-27T07:32:44;2.55;;;2.17;;
61471;SDS011;47337;54.068;12.114;2022-09-27T07:35:10;6.18;;;2.92;;
61471;SDS011;47337;54.068;12.114;2022-09-27T07:37:37;2.15;;;1.95;;
61471;SDS011;47337;54.068;12.114;2022-09-27T07:40:04;2.75;;;2.20;;
61471;SDS011;47337;54.068;12.114;2022-09-27T07:42:36;4.72;;;2.25;;
61471;SDS011;47337;54.068;12.114;2022-09-27T07:45:04;4.40;;;2.22;;
61471;SDS011;47337;54.068;12.114;2022-09-27T07:47:31;3.15;;;2.20;;
61471;SDS011;47337;54.068;12.114;2022-09-27T07:49:56;2.78;;;2.28;;
61471;SDS011;47337;54.068;12.114;2022-09-27T07:52:22;2.40;;;2.10;;
61471;SDS011;47337;54.068;12.114;2022-09-27T07:54:47;2.50;;;2.30;;
61471;SDS011;47337;54.068;12.114;2022-09-27T07:57:13;2.38;;;2.17;;
61471;SDS011;47337;54.068;12.114;2022-09-27T07:59:42;2.63;;;2.00;;
61471;SDS011;47337;54.068;12.114;2022-09-27T08:02:14;4.55;;;2.17;;
61471;SDS011;47337;54.068;12.114;2022-09-27T08:04:41;3.45;;;2.40;;
61471;SDS011;47337;54.068;12.114;2022-09-27T08:07:13;4.93;;;2.60;;
61471;SDS011;47337;54.068;12.114;2022-09-27T08:09:39;3.70;;;2.10;;
61471;SDS011;47337;54.068;12.114;2022-09-27T08:12:06;2.60;;;2.30;;
61471;SDS011;47337;54.068;12.114;2022-09-27T08:14:32;3.25;;;2.50;;
61471;SDS011;47337;54.068;12.114;2022-09-27T08:16:57;3.10;;;2.30;;
61471;SDS011;47337;54.068;12.114;2022-09-27T08:19:23;3.38;;;2.33;;
61471;SDS011;47337;54.068;12.114;2022-09-27T08:21:51;4.68;;;2.15;;
61471;SDS011;47337;54.068;12.114;2022-09-27T08:24:19;3.15;;;2.85;;
61471;SDS011;47337;54.068;12.114;2022-09-27T08:26:44;4.55;;;2.30;;
61471;SDS011;47337;54.068;12.114;2022-09-27T08:29:10;4.85;;;2.78;;
61471;SDS011;47337;54.068;12.114;2022-09-27T08:31:36;4.53;;;3.08;;
61471;SDS011;47337;54.068;12.114;2022-09-27T08:34:02;2.90;;;2.63;;
61471;SDS011;47337;54.068;12.114;2022-09-27T08:36:30;3.08;;;2.83;;
61471;SDS011;47337;54.068;12.114;2022-09-27T08:38:59;3.75;;;2.80;;
61471;SDS011;47337;54.068;12.114;2022-09-27T08:44:10;3.05;;;2.70;;
61471;SDS011;47337;54.068;12.114;2022-09-27T08:52:29;4.38;;;3.08;;
61471;SDS011;47337;54.068;12.114;2022-09-27T08:55:21;2.97;;;2.65;;
61471;SDS011;47337;54.068;12.114;2022-09-27T08:57:52;5.68;;;2.63;;
61471;SDS011;47337;54.068;12.114;2022-09-27T09:00:22;3.95;;;2.75;;
61471;SDS011;47337;54.068;12.114;2022-09-27T09:02:48;2.80;;;2.60;;
61471;SDS011;47337;54.068;12.114;2022-09-27T09:05:16;3.42;;;3.00;;
61471;SDS011;47337;54.068;12.114;2022-09-27T09:33:37;4.28;;;2.80;;
61471;SDS011;47337;54.068;12.114;2022-09-27T09:38:41;4.28;;;3.50;;
61471;SDS011;47337;54.068;12.114;2022-09-27T09:41:21;3.22;;;2.92;;
61471;SDS011;47337;54.068;12.114;2022-09-27T09:44:25;3.10;;;2.70;;
61471;SDS011;47337;54.068;12.114;2022-09-27T09:46:47;2.83;;;2.63;;
61471;SDS011;47337;54.068;12.114;2022-09-27T09:52:10;2.88;;;2.60;;
61471;SDS011;47337;54.068;12.114;2022-09-27T09:54:43;3.45;;;3.03;;
61471;SDS011;47337;54.068;12.114;2022-09-27T09:57:19;2.95;;;2.65;;
61471;SDS011;47337;54.068;12.114;2022-09-27T10:02:39;3.13;;;2.35;;
61471;SDS011;47337;54.068;12.114;2022-09-27T10:05:06;2.53;;;2.22;;
61471;SDS011;47337;54.068;12.114;2022-09-27T10:07:37;2.72;;;2.38;;
61471;SDS011;47337;54.068;12.114;2022-09-27T10:10:04;3.33;;;2.70;;
61471;SDS011;47337;54.068;12.114;2022-09-27T10:12:31;2.50;;;2.30;;
61471;SDS011;47337;54.068;12.114;2022-09-27T10:14:58;3.15;;;2.25;;
61471;SDS011;47337;54.068;12.114;2022-09-27T10:17:28;2.75;;;2.47;;
61471;SDS011;47337;54.068;12.114;2022-09-27T10:19:59;2.50;;;2.30;;
61471;SDS011;47337;54.068;12.114;2022-09-27T10:22:27;3.33;;;2.50;;
61471;SDS011;47337;54.068;12.114;2022-09-27T10:25:01;2.75;;;2.00;;
61471;SDS011;47337;54.068;12.114;2022-09-27T10:27:49;2.70;;;2.03;;
61471;SDS011;47337;54.068;12.114;2022-09-27T10:32:53;2.85;;;2.03;;
61471;SDS011;47337;54.068;12.114;2022-09-27T10:40:53;2.10;;;1.90;;
61471;SDS011;47337;54.068;12.114;2022-09-27T10:46:03;1.95;;;1.85;;
61471;SDS011;47337;54.068;12.114;2022-09-27T10:48:32;2.38;;;1.83;;
61471;SDS011;47337;54.068;12.114;2022-09-27T10:51:21;2.65;;;2.05;;
61471;SDS011;47337;54.068;12.114;2022-09-27T10:53:49;2.10;;;1.90;;
61471;SDS011;47337;54.068;12.114;2022-09-27T10:56:25;2.70;;;2.50;;
61471;SDS011;47337;54.068;12.114;2022-09-27T10:58:57;2.58;;;2.38;;
61471;SDS011;47337;54.068;12.114;2022-09-27T11:01:37;2.50;;;2.00;;
61471;SDS011;47337;54.068;12.114;2022-09-27T11:04:14;2.53;;;2.22;;
61471;SDS011;47337;54.068;12.114;2022-09-27T11:06:47;2.10;;;1.90;;
61471;SDS011;47337;54.068;12.114;2022-09-27T11:09:17;2.28;;;2.08;;
61471;SDS011;47337;54.068;12.114;2022-09-27T11:11:52;2.17;;;2.00;;
61471;SDS011;47337;54.068;12.114;2022-09-27T11:14:33;2.22;;;2.03;;
61471;SDS011;47337;54.068;12.114;2022-09-27T11:28:02;3.45;;;2.08;;
61471;SDS011;47337;54.068;12.114;2022-09-27T11:52:52;3.42;;;1.98;;
61471;SDS011;47337;54.068;12.114;2022-09-27T11:58:20;2.33;;;1.58;;
61471;SDS011;47337;54.068;12.114;2022-09-27T12:00:56;1.67;;;0.75;;
61471;SDS011;47337;54.068;12.114;2022-09-27T12:09:56;0.50;;;0.30;;
61471;SDS011;47337;54.068;12.114;2022-09-27T12:12:30;1.77;;;0.50;;
61471;SDS011;47337;54.068;12.114;2022-09-27T12:15:01;1.35;;;0.40;;
61471;SDS011;47337;54.068;12.114;2022-09-27T12:17:33;1.65;;;0.55;;
61471;SDS011;47337;54.068;12.114;2022-09-27T12:20:05;0.40;;;0.40;;
61471;SDS011;47337;54.068;12.114;2022-09-27T12:25:39;1.80;;;0.60;;
61471;SDS011;47337;54.068;12.114;2022-09-27T12:28:18;0.90;;;0.32;;
61471;SDS011;47337;54.068;12.114;2022-09-27T12:30:54;0.73;;;0.35;;
61471;SDS011;47337;54.068;12.114;2022-09-27T12:33:40;2.25;;;0.80;;
61471;SDS011;47337;54.068;12.114;2022-09-27T12:36:13;1.77;;;0.60;;
61471;SDS011;47337;54.068;12.114;2022-09-27T12:38:45;0.40;;;0.30;;
61471;SDS011;47337;54.068;12.114;2022-09-27T12:41:19;0.40;;;0.40;;
61471;SDS011;47337;54.068;12.114;2022-09-27T12:43:50;0.60;;;0.50;;
61471;SDS011;47337;54.068;12.114;2022-09-27T12:49:09;1.50;;;0.50;;
61471;SDS011;47337;54.068;12.114;2022-09-27T12:51:57;0.40;;;0.40;;
61471;SDS011;47337;54.068;12.114;2022-09-27T13:02:20;2.47;;;0.68;;
61471;SDS011;47337;54.068;12.114;2022-09-27T13:13:49;1.50;;;0.63;;
61471;SDS011;47337;54.068;12.114;2022-09-27T13:16:23;2.40;;;0.63;;
61471;SDS011;47337;54.068;12.114;2022-09-27T13:18:59;4.00;;;0.80;;
61471;SDS011;47337;54.068;12.114;2022-09-27T13:32:40;1.38;;;1.17;;
61471;SDS011;47337;54.068;12.114;2022-09-27T13:35:34;1.10;;;0.70;;
61471;SDS011;47337;54.068;12.114;2022-09-27T13:38:03;1.25;;;0.85;;
61471;SDS011;47337;54.068;12.114;2022-09-27T13:49:10;0.88;;;0.77;;
61471;SDS011;47337;54.068;12.114;2022-09-27T13:54:05;1.00;;;0.80;;
61471;SDS011;47337;54.068;12.114;2022-09-27T13:56:51;1.17;;;0.80;;
61471;SDS011;47337;54.068;12.114;2022-09-27T13:59:22;2.55;;;0.80;;
61471;SDS011;47337;54.068;12.114;2022-09-27T14:01:52;2.28;;;0.98;;
61471;SDS011;47337;54.068;12.114;2022-09-27T14:04:27;1.30;;;1.20;;
61471;SDS011;47337;54.068;12.114;2022-09-27T14:06:55;1.40;;;0.80;;
61471;SDS011;47337;54.068;12.114;2022-09-27T14:09:34;5.28;;;1.02;;
61471;SDS011;47337;54.068;12.114;2022-09-27T14:12:10;0.65;;;0.65;;
61471;SDS011;47337;54.068;12.114;2022-09-27T14:14:40;0.95;;;0.63;;
61471;SDS011;47337;54.068;12.114;2022-09-27T14:17:09;0.73;;;0.50;;
61471;SDS011;47337;54.068;12.114;2022-09-27T14:19:37;0.85;;;0.35;;
61471;SDS011;47337;54.068;12.114;2022-09-27T14:22:10;1.02;;;0.30;;
61471;SDS011;47337;54.068;12.114;2022-09-27T14:27:08;0.65;;;0.40;;
61471;SDS011;47337;54.068;12.114;2022-09-27T14:29:38;1.48;;;0.20;;
61471;SDS011;47337;54.068;12.114;2022-09-27T14:32:09;0.77;;;0.32;;
61471;SDS011;47337;54.068;12.114;2022-09-27T14:34:37;0.75;;;0.40;;
61471;SDS011;47337;54.068;12.114;2022-09-27T14:37:03;1.52;;;0.40;;
61471;SDS011;47337;54.068;12.114;2022-09-27T14:42:23;0.60;;;0.40;;
61471;SDS011;47337;54.068;12.114;2022-09-27T14:44:51;0.60;;;0.28;;
61471;SDS011;47337;54.068;12.114;2022-09-27T14:49:49;1.05;;;0.40;;
61471;SDS011;47337;54.068;12.114;2022-09-27T14:52:28;0.80;;;0.35;;
61471;SDS011;47337;54.068;12.114;2022-09-27T14:57:38;2.20;;;0.60;;
61471;SDS011;47337;54.068;12.114;2022-09-27T15:00:16;2.25;;;0.68;;
61471;SDS011;47337;54.068;12.114;2022-09-27T15:02:45;1.02;;;0.50;;
61471;SDS011;47337;54.068;12.114;2022-09-27T15:05:18;1.10;;;0.63;;
61471;SDS011;47337;54.068;12.114;2022-09-27T15:07:47;0.52;;;0.50;;
61471;SDS011;47337;54.068;12.114;2022-09-27T15:10:16;3.35;;;0.95;;
61471;SDS011;47337;54.068;12.114;2022-09-27T15:12:46;1.95;;;0.55;;
61471;SDS011;47337;54.068;12.114;2022-09-27T15:15:17;2.13;;;0.60;;
61471;SDS011;47337;54.068;12.114;2022-09-27T15:17:47;0.77;;;0.65;;
61471;SDS011;47337;54.068;12.114;2022-09-27T15:20:23;2.22;;;0.50;;
61471;SDS011;47337;54.068;12.114;2022-09-27T15:23:03;1.42;;;0.65;;
61471;SDS011;47337;54.068;12.114;2022-09-27T15:25:37;1.75;;;0.63;;
61471;SDS011;47337;54.068;12.114;2022-09-27T15:30:36;0.80;;;0.63;;
61471;SDS011;47337;54.068;12.114;2022-09-27T15:33:19;1.75;;;0.55;;
61471;SDS011;47337;54.068;12.114;2022-09-27T15:35:49;1.45;;;0.52;;
61471;SDS011;47337;54.068;12.114;2022-09-27T15:43:46;1.33;;;0.60;;
61471;SDS011;47337;54.068;12.114;2022-09-27T15:49:12;1.75;;;0.70;;
61471;SDS011;47337;54.068;12.114;2022-09-27T15:51:54;1.08;;;0.55;;
61471;SDS011;47337;54.068;12.114;2022-09-27T15:54:27;1.77;;;0.60;;
61471;SDS011;47337;54.068;12.114;2022-09-27T15:56:54;1.98;;;0.63;;
61471;SDS011;47337;54.068;12.114;2022-09-27T15:59:27;1.63;;;0.70;;
61471;SDS011;47337;54.068;12.114;2022-09-27T16:01:54;0.75;;;0.60;;
61471;SDS011;47337;54.068;12.114;2022-09-27T16:04:36;1.77;;;0.80;;
61471;SDS011;47337;54.068;12.114;2022-09-27T16:07:04;2.03;;;0.75;;
61471;SDS011;47337;54.068;12.114;2022-09-27T16:09:32;1.60;;;0.60;;
61471;SDS011;47337;54.068;12.114;2022-09-27T16:11:58;1.77;;;0.70;;
61471;SDS011;47337;54.068;12.114;2022-09-27T16:14:23;0.50;;;0.43;;
61471;SDS011;47337;54.068;12.114;2022-09-27T16:16:51;1.05;;;0.45;;
61471;SDS011;47337;54.068;12.114;2022-09-27T16:19:21;1.83;;;0.73;;
61471;SDS011;47337;54.068;12.114;2022-09-27T16:21:49;2.10;;;0.63;;
61471;SDS011;47337;54.068;12.114;2022-09-27T16:24:17;1.75;;;0.88;;
61471;SDS011;47337;54.068;12.114;2022-09-27T16:26:42;1.20;;;0.88;;
61471;SDS011;47337;54.068;12.114;2022-09-27T16:29:09;1.88;;;0.80;;
61471;SDS011;47337;54.068;12.114;2022-09-27T16:31:36;1.73;;;0.88;;
61471;SDS011;47337;54.068;12.114;2022-09-27T16:34:01;2.10;;;0.90;;
61471;SDS011;47337;54.068;12.114;2022-09-27T16:36:27;1.48;;;0.80;;
61471;SDS011;47337;54.068;12.114;2022-09-27T16:38:52;1.88;;;0.90;;
61471;SDS011;47337;54.068;12.114;2022-09-27T16:41:21;2.28;;;0.95;;
61471;SDS011;47337;54.068;12.114;2022-09-27T16:43:47;1.38;;;0.98;;
61471;SDS011;47337;54.068;12.114;2022-09-27T16:46:15;0.98;;;0.70;;
61471;SDS011;47337;54.068;12.114;2022-09-27T16:48:43;2.10;;;0.50;;
61471;SDS011;47337;54.068;12.114;2022-09-27T16:51:16;0.77;;;0.50;;
61471;SDS011;47337;54.068;12.114;2022-09-27T16:54:02;1.65;;;0.70;;
61471;SDS011;47337;54.068;12.114;2022-09-27T16:56:34;1.30;;;0.70;;
61471;SDS011;47337;54.068;12.114;2022-09-27T16:59:00;0.45;;;0.40;;
61471;SDS011;47337;54.068;12.114;2022-09-27T17:01:28;1.90;;;0.50;;
61471;SDS011;47337;54.068;12.114;2022-09-27T17:03:57;1.27;;;0.57;;
61471;SDS011;47337;54.068;12.114;2022-09-27T17:06:23;2.35;;;0.60;;
61471;SDS011;47337;54.068;12.114;2022-09-27T17:08:50;1.13;;;0.60;;
61471;SDS011;47337;54.068;12.114;2022-09-27T17:11:16;0.88;;;0.60;;
61471;SDS011;47337;54.068;12.114;2022-09-27T17:13:46;2.17;;;0.88;;
61471;SDS011;47337;54.068;12.114;2022-09-27T17:16:13;3.60;;;1.67;;
61471;SDS011;47337;54.068;12.114;2022-09-27T17:18:39;0.90;;;0.73;;
61471;SDS011;47337;54.068;12.114;2022-09-27T17:21:05;2.08;;;1.15;;
61471;SDS011;47337;54.068;12.114;2022-09-27T17:23:33;1.48;;;0.93;;
61471;SDS011;47337;54.068;12.114;2022-09-27T17:26:13;3.88;;;1.00;;
61471;SDS011;47337;54.068;12.114;2022-09-27T17:28:38;2.53;;;1.05;;
61471;SDS011;47337;54.068;12.114;2022-09-27T17:31:06;1.63;;;0.90;;
61471;SDS011;47337;54.068;12.114;2022-09-27T17:33:39;2.03;;;1.00;;
61471;SDS011;47337;54.068;12.114;2022-09-27T17:36:15;3.42;;;1.20;;
61471;SDS011;47337;54.068;12.114;2022-09-27T17:38:41;3.17;;;1.40;;
61471;SDS011;47337;54.068;12.114;2022-09-27T17:41:09;3.50;;;1.50;;
61471;SDS011;47337;54.068;12.114;2022-09-27T17:43:39;2.58;;;1.00;;
61471;SDS011;47337;54.068;12.114;2022-09-27T17:46:10;1.95;;;0.70;;
61471;SDS011;47337;54.068;12.114;2022-09-27T17:48:36;2.20;;;0.82;;
61471;SDS011;47337;54.068;12.114;2022-09-27T17:51:20;2.58;;;0.90;;
61471;SDS011;47337;54.068;12.114;2022-09-27T17:53:46;1.00;;;0.80;;
61471;SDS011;47337;54.068;12.114;2022-09-27T17:56:16;2.17;;;0.80;;
61471;SDS011;47337;54.068;12.114;2022-09-27T17:58:49;2.25;;;1.00;;
61471;SDS011;47337;54.068;12.114;2022-09-27T18:01:17;2.85;;;1.30;;
61471;SDS011;47337;54.068;12.114;2022-09-27T18:03:44;1.45;;;1.23;;
61471;SDS011;47337;54.068;12.114;2022-09-27T18:06:10;2.80;;;1.30;;
61471;SDS011;47337;54.068;12.114;2022-09-27T18:08:37;1.73;;;1.02;;